createdAt,value
2022-08-04T00:00:13.660Z,98.60
2022-08-04T00:03:19.787Z,98.40
2022-08-04T00:06:25.078Z,98.70
2022-08-04T00:09:17.902Z,99.20
2022-08-04T00:11:47.463Z,99.10
2022-08-04T00:14:16.402Z,99.30
2022-08-04T00:16:46.288Z,99.50
2022-08-04T00:19:24.565Z,99.90
2022-08-04T00:21:58.856Z,99.90
2022-08-04T00:24:26.578Z,99.90
2022-08-04T00:26:54.512Z,99.90
2022-08-04T00:29:23.247Z,99.90
2022-08-04T00:31:54.858Z,99.90
2022-08-04T00:34:27.554Z,99.90
2022-08-04T00:36:56.541Z,99.90
2022-08-04T00:39:24.645Z,99.90
2022-08-04T00:42:19.154Z,99.90
2022-08-04T00:45:30.869Z,99.90
2022-08-04T00:48:51.752Z,99.90
2022-08-04T00:51:41.217Z,99.90
2022-08-04T00:54:51.804Z,99.90
2022-08-04T00:57:54.064Z,99.90
2022-08-04T01:00:21.607Z,99.90
2022-08-04T01:02:51.488Z,99.90
2022-08-04T01:05:28.825Z,99.90
2022-08-04T01:08:52.455Z,99.90
2022-08-04T01:11:57.051Z,99.90
2022-08-04T01:15:08.136Z,99.90
2022-08-04T01:18:01.727Z,99.90
2022-08-04T01:20:42.965Z,99.90
2022-08-04T01:23:41.533Z,99.90
2022-08-04T01:26:53.794Z,99.90
2022-08-04T01:29:36.997Z,99.90
2022-08-04T01:32:25.558Z,99.90
2022-08-04T01:35:02.036Z,99.90
2022-08-04T01:37:58.592Z,99.90
2022-08-04T01:40:29.111Z,99.90
2022-08-04T01:42:58.725Z,99.90
2022-08-04T01:45:26.038Z,99.90
2022-08-04T01:47:56.740Z,99.90
2022-08-04T01:50:27.949Z,99.90
2022-08-04T01:52:57.166Z,99.90
2022-08-04T01:55:51.941Z,99.90
2022-08-04T01:58:14.637Z,99.90
2022-08-04T02:00:56.883Z,99.90
2022-08-04T02:03:24.258Z,99.90
2022-08-04T02:06:58.815Z,99.90
2022-08-04T02:09:53.691Z,99.90
2022-08-04T02:12:44.909Z,99.90
2022-08-04T02:15:33.295Z,99.90
2022-08-04T02:18:25.807Z,99.90
2022-08-04T02:21:01.955Z,99.90
2022-08-04T02:23:41.708Z,99.90
2022-08-04T02:26:22.727Z,99.90
2022-08-04T02:29:31.809Z,99.90
2022-08-04T02:32:07.797Z,99.90
2022-08-04T02:35:22.118Z,99.90
2022-08-04T02:38:03.461Z,99.90
2022-08-04T02:40:31.510Z,99.90
2022-08-04T02:43:00.287Z,99.90
2022-08-04T02:45:29.080Z,99.90
2022-08-04T02:48:28.769Z,99.90
2022-08-04T02:50:46.766Z,99.90
2022-08-04T02:53:18.743Z,99.90
2022-08-04T02:55:50.739Z,99.90
2022-08-04T02:58:26.231Z,99.90
2022-08-04T03:00:53.157Z,99.90
2022-08-04T03:03:41.554Z,99.90
2022-08-04T03:06:11.544Z,99.90
2022-08-04T03:09:09.633Z,99.90
2022-08-04T03:11:55.072Z,99.90
2022-08-04T03:14:58.719Z,99.90
2022-08-04T03:17:53.522Z,99.90
2022-08-04T03:20:43.865Z,99.90
2022-08-04T03:23:48.769Z,99.90
2022-08-04T03:26:45.838Z,99.90
2022-08-04T03:29:40.735Z,99.90
2022-08-04T03:32:44.930Z,99.90
2022-08-04T03:35:52.438Z,99.90
2022-08-04T03:38:34.267Z,99.90
2022-08-04T03:41:55.246Z,99.90
2022-08-04T03:44:56.684Z,99.90
2022-08-04T03:48:06.051Z,99.90
2022-08-04T03:51:35.124Z,99.90
2022-08-04T03:55:03.051Z,99.90
2022-08-04T03:57:48.538Z,99.90
2022-08-04T04:00:20.096Z,99.90
2022-08-04T04:03:28.332Z,99.90
2022-08-04T04:06:12.399Z,99.90
2022-08-04T04:09:24.098Z,99.90
2022-08-04T04:12:26.432Z,99.90
2022-08-04T04:15:25.974Z,99.90
2022-08-04T04:18:32.662Z,99.90
2022-08-04T04:21:29.481Z,99.90
2022-08-04T04:24:34.368Z,99.90
2022-08-04T04:27:18.743Z,99.90
2022-08-04T04:30:09.251Z,99.90
2022-08-04T04:32:57.158Z,99.90
2022-08-04T04:36:02.018Z,99.90
2022-08-04T04:38:57.707Z,99.90
2022-08-04T04:42:14.373Z,99.90
2022-08-04T04:44:43.969Z,99.90
2022-08-04T04:48:09.254Z,99.90
2022-08-04T04:51:10.223Z,99.90
2022-08-04T04:54:08.859Z,99.90
2022-08-04T04:56:50.903Z,99.90
2022-08-04T04:59:23.129Z,99.90
2022-08-04T05:02:20.637Z,99.90
2022-08-04T05:05:26.270Z,99.90
2022-08-04T05:08:43.093Z,99.90
2022-08-04T05:11:22.700Z,99.90
2022-08-04T05:14:37.802Z,99.90
2022-08-04T05:16:57.099Z,99.90
2022-08-04T05:19:34.124Z,99.90
2022-08-04T05:22:14.398Z,99.90
2022-08-04T05:24:46.420Z,99.90
2022-08-04T05:27:21.920Z,99.90
2022-08-04T05:29:57.616Z,99.90
2022-08-04T05:32:30.406Z,99.90
2022-08-04T05:35:07.257Z,99.90
2022-08-04T05:37:38.649Z,99.90
2022-08-04T05:40:08.520Z,99.90
2022-08-04T05:42:40.133Z,99.90
2022-08-04T05:45:09.810Z,99.90
2022-08-04T05:47:37.856Z,99.90
2022-08-04T05:50:07.312Z,99.90
2022-08-04T05:52:37.571Z,99.90
2022-08-04T05:55:06.043Z,99.90
2022-08-04T05:57:34.034Z,99.90
2022-08-04T06:00:25.132Z,99.90
2022-08-04T06:02:54.096Z,99.90
2022-08-04T06:05:21.584Z,99.90
2022-08-04T06:08:12.667Z,99.90
2022-08-04T06:10:40.097Z,99.90
2022-08-04T06:13:48.056Z,99.90
2022-08-04T06:16:01.531Z,99.90
2022-08-04T06:19:58.815Z,99.90
2022-08-04T06:21:21.349Z,99.90
2022-08-04T06:23:56.186Z,99.90
2022-08-04T06:26:33.476Z,99.90
2022-08-04T06:29:02.345Z,99.90
2022-08-04T06:32:27.055Z,99.90
2022-08-04T06:34:32.725Z,99.90
2022-08-04T06:37:00.484Z,99.90
2022-08-04T06:39:30.178Z,99.90
2022-08-04T06:42:21.748Z,99.90
2022-08-04T06:44:49.877Z,99.90
2022-08-04T06:47:19.787Z,99.90
2022-08-04T06:51:25.589Z,99.90
2022-08-04T06:52:38.281Z,99.90
2022-08-04T06:55:07.645Z,99.90
2022-08-04T06:57:36.528Z,99.90
2022-08-04T07:00:13.980Z,99.90
2022-08-04T07:02:51.855Z,99.90
2022-08-04T07:05:20.556Z,99.90
2022-08-04T07:07:57.054Z,99.90
2022-08-04T07:10:29.502Z,99.90
2022-08-04T07:13:01.703Z,99.90
2022-08-04T07:15:29.761Z,99.90
2022-08-04T07:18:00.090Z,99.90
2022-08-04T07:20:34.049Z,99.90
2022-08-04T07:23:07.397Z,99.80
2022-08-04T07:25:59.159Z,98.60
2022-08-04T07:28:28.844Z,98.80
2022-08-04T07:30:58.221Z,98.00
2022-08-04T07:33:26.223Z,97.80
2022-08-04T07:36:09.572Z,97.20
2022-08-04T07:38:48.352Z,96.90
2022-08-04T07:41:39.049Z,96.70
2022-08-04T07:44:08.138Z,94.80
2022-08-04T07:46:38.728Z,95.00
2022-08-04T07:49:06.980Z,94.50
2022-08-04T07:51:36.492Z,94.40
2022-08-04T07:54:05.914Z,94.00
2022-08-04T07:56:39.511Z,94.10
2022-08-04T07:59:07.123Z,94.30
2022-08-04T08:01:37.787Z,93.50
2022-08-04T08:04:11.102Z,93.50
2022-08-04T08:06:43.103Z,93.80
2022-08-04T08:09:18.196Z,92.70
2022-08-04T08:12:37.485Z,92.80
2022-08-04T08:14:40.708Z,92.40
2022-08-04T08:17:07.805Z,92.40
2022-08-04T08:19:35.816Z,92.30
2022-08-04T08:22:03.552Z,91.80
2022-08-04T08:24:35.224Z,92.60
2022-08-04T08:27:07.182Z,91.80
2022-08-04T08:29:35.797Z,91.90
2022-08-04T08:32:08.850Z,91.60
2022-08-04T08:34:37.029Z,91.10
2022-08-04T08:37:38.357Z,91.20
2022-08-04T08:44:05.943Z,90.60
2022-08-04T08:47:09.685Z,90.50
2022-08-04T08:50:18.618Z,90.00
2022-08-04T08:53:20.815Z,89.50
2022-08-04T08:56:12.716Z,89.60
2022-08-04T08:59:25.160Z,88.40
2022-08-04T09:02:28.460Z,88.20
2022-08-04T09:05:55.278Z,85.80
2022-08-04T09:08:38.857Z,84.90
2022-08-04T09:11:30.884Z,84.20
2022-08-04T09:14:06.236Z,83.30
2022-08-04T09:16:50.537Z,83.90
2022-08-04T09:19:39.629Z,84.10
2022-08-04T09:22:14.517Z,82.30
2022-08-04T09:25:04.817Z,82.70
2022-08-04T09:27:47.592Z,82.30
2022-08-04T09:30:20.411Z,80.40
2022-08-04T09:33:44.876Z,80.10
2022-08-04T09:37:02.222Z,80.00
2022-08-04T09:40:31.571Z,79.60
2022-08-04T09:44:42.195Z,80.00
2022-08-04T09:46:51.757Z,78.10
2022-08-04T09:49:26.358Z,75.30
2022-08-04T09:51:56.878Z,74.90
2022-08-04T09:54:37.217Z,75.80
2022-08-04T09:57:29.864Z,73.30
2022-08-04T10:00:10.417Z,72.60
2022-08-04T10:02:44.553Z,73.50
2022-08-04T10:05:29.661Z,71.30
2022-08-04T10:08:28.468Z,70.80
2022-08-04T10:11:14.130Z,69.00
2022-08-04T10:14:41.752Z,68.70
2022-08-04T10:17:35.395Z,68.60
2022-08-04T10:20:14.661Z,68.80
2022-08-04T10:23:13.181Z,70.90
2022-08-04T10:26:07.531Z,68.10
2022-08-04T10:28:46.721Z,67.20
2022-08-04T10:31:23.177Z,66.90
2022-08-04T10:33:58.458Z,68.40
2022-08-04T10:36:33.481Z,68.60
2022-08-04T10:39:12.038Z,65.70
2022-08-04T10:42:03.934Z,65.70
2022-08-04T10:44:57.813Z,65.10
2022-08-04T10:47:32.547Z,65.90
2022-08-04T10:50:05.551Z,65.60
2022-08-04T10:52:55.896Z,65.60
2022-08-04T10:56:06.398Z,64.90
2022-08-04T10:58:47.599Z,65.50
2022-08-04T11:02:01.740Z,64.50
2022-08-04T11:04:47.798Z,64.60
2022-08-04T11:07:17.368Z,63.90
2022-08-04T11:09:46.893Z,64.40
2022-08-04T11:12:24.662Z,64.10
2022-08-04T11:15:09.134Z,62.20
2022-08-04T11:17:41.266Z,63.00
2022-08-04T11:20:37.519Z,62.60
2022-08-04T11:23:17.362Z,63.50
2022-08-04T11:25:57.457Z,63.10
2022-08-04T11:28:43.291Z,61.30
2022-08-04T11:31:46.243Z,61.00
2022-08-04T11:34:27.638Z,61.90
2022-08-04T11:37:15.030Z,59.60
2022-08-04T11:40:02.940Z,60.80
2022-08-04T11:42:43.834Z,60.60
2022-08-04T11:45:19.858Z,60.90
2022-08-04T11:48:04.345Z,60.30
2022-08-04T11:50:53.394Z,58.10
2022-08-04T11:53:36.246Z,58.60
2022-08-04T11:56:09.593Z,59.30
2022-08-04T11:58:38.811Z,59.80
2022-08-04T12:01:32.184Z,60.00
2022-08-04T12:04:20.436Z,59.60
2022-08-04T12:07:34.459Z,59.60
2022-08-04T12:10:51.000Z,60.30
2022-08-04T12:13:35.693Z,60.50
2022-08-04T12:16:17.573Z,60.60
2022-08-04T12:18:57.836Z,59.20
2022-08-04T12:21:53.284Z,59.00
2022-08-04T12:24:35.607Z,58.40
2022-08-04T12:27:14.534Z,59.50
2022-08-04T12:29:42.699Z,59.70
2022-08-04T12:33:01.390Z,58.10
2022-08-04T12:35:35.778Z,57.70
2022-08-04T12:38:17.042Z,57.60
2022-08-04T12:40:51.909Z,57.10
2022-08-04T12:43:31.172Z,58.10
2022-08-04T12:46:04.418Z,57.00
2022-08-04T12:48:33.708Z,57.50
2022-08-04T12:51:02.131Z,58.00
2022-08-04T12:53:51.330Z,57.30
2022-08-04T12:56:27.324Z,58.40
2022-08-04T12:59:06.755Z,57.10
2022-08-04T13:02:09.669Z,56.70
2022-08-04T13:04:38.239Z,57.70
2022-08-04T13:07:21.608Z,56.60
2022-08-04T13:09:49.250Z,55.60
2022-08-04T13:12:25.962Z,55.80
2022-08-04T13:15:18.039Z,55.70
2022-08-04T13:18:15.224Z,56.00
2022-08-04T13:20:44.037Z,55.90
2022-08-04T13:23:21.694Z,55.80
2022-08-04T13:26:42.335Z,55.50
2022-08-04T13:28:43.537Z,56.70
2022-08-04T13:31:19.905Z,56.60
2022-08-04T13:33:50.978Z,56.40
2022-08-04T13:36:19.389Z,54.30
2022-08-04T13:38:55.863Z,54.80
2022-08-04T13:41:27.768Z,55.90
2022-08-04T13:44:17.499Z,56.00
2022-08-04T13:46:52.438Z,54.70
2022-08-04T13:49:37.638Z,53.40
2022-08-04T13:52:11.161Z,53.20
2022-08-04T13:54:48.394Z,52.60
2022-08-04T13:57:31.902Z,53.60
2022-08-04T14:00:09.682Z,54.00
2022-08-04T14:02:50.342Z,51.80
2022-08-04T14:05:28.071Z,51.80
2022-08-04T14:08:08.052Z,52.50
2022-08-04T14:10:36.682Z,51.50
2022-08-04T14:13:06.067Z,52.00
2022-08-04T14:18:32.618Z,50.90
2022-08-04T14:21:17.090Z,52.40
2022-08-04T14:23:47.119Z,52.60
2022-08-04T14:26:17.976Z,51.90
2022-08-04T14:29:08.507Z,50.40
2022-08-04T14:31:32.267Z,50.60
2022-08-04T14:34:03.777Z,50.90
2022-08-04T14:37:13.894Z,50.70
2022-08-04T14:40:08.340Z,51.50
2022-08-04T14:42:55.681Z,52.50
2022-08-04T14:45:54.833Z,51.70
2022-08-04T14:48:23.061Z,51.60
2022-08-04T14:50:51.264Z,52.00
2022-08-04T14:53:22.358Z,51.50
2022-08-04T14:55:56.859Z,51.70
2022-08-04T14:58:39.215Z,51.80
2022-08-04T15:01:12.041Z,51.90
2022-08-04T15:03:50.899Z,52.20
2022-08-04T15:06:29.042Z,52.40
2022-08-04T15:09:02.329Z,52.60
2022-08-04T15:11:29.602Z,54.40
2022-08-04T15:13:58.364Z,54.20
2022-08-04T15:16:29.750Z,53.80
2022-08-04T15:18:57.853Z,53.30
2022-08-04T15:21:29.837Z,52.70
2022-08-04T15:23:58.721Z,51.90
2022-08-04T15:26:53.720Z,52.20
2022-08-04T15:30:00.154Z,51.40
2022-08-04T15:32:40.559Z,51.00
2022-08-04T15:35:30.842Z,51.20
2022-08-04T15:38:10.644Z,52.10
2022-08-04T15:40:49.516Z,52.50
2022-08-04T15:44:11.795Z,53.40
2022-08-04T15:46:47.972Z,54.00
2022-08-04T15:49:40.898Z,54.30
2022-08-04T15:52:16.712Z,54.80
2022-08-04T15:54:51.955Z,54.60
2022-08-04T15:58:03.490Z,55.00
2022-08-04T16:00:50.649Z,55.50
2022-08-04T16:03:58.181Z,55.00
2022-08-04T16:06:22.502Z,56.00
2022-08-04T16:08:57.395Z,56.60
2022-08-04T16:11:31.703Z,56.10
2022-08-04T16:13:59.089Z,56.00
2022-08-04T16:16:45.108Z,57.00
2022-08-04T16:19:47.588Z,57.00
2022-08-04T16:22:38.181Z,57.30
2022-08-04T16:25:09.295Z,57.70
2022-08-04T16:27:44.764Z,57.60
2022-08-04T16:30:14.945Z,59.50
2022-08-04T16:32:48.838Z,60.60
2022-08-04T16:35:28.546Z,57.40
2022-08-04T16:38:13.469Z,56.80
2022-08-04T16:40:45.215Z,56.20
2022-08-04T16:43:16.226Z,56.00
2022-08-04T16:46:01.549Z,55.90
2022-08-04T16:48:36.597Z,56.50
2022-08-04T16:51:09.740Z,57.70
2022-08-04T16:54:04.125Z,57.00
2022-08-04T16:56:35.393Z,57.60
2022-08-04T16:59:11.343Z,57.60
2022-08-04T17:01:49.831Z,57.40
2022-08-04T17:04:17.343Z,57.60
2022-08-04T17:06:49.513Z,58.50
2022-08-04T17:09:19.510Z,59.10
2022-08-04T17:11:48.232Z,60.10
2022-08-04T17:14:28.960Z,60.70
2022-08-04T17:17:02.019Z,60.00
2022-08-04T17:19:29.063Z,60.10
2022-08-04T17:22:14.659Z,61.30
2022-08-04T17:24:41.663Z,60.50
2022-08-04T17:28:18.373Z,61.80
2022-08-04T17:29:57.574Z,63.10
2022-08-04T17:32:25.103Z,62.60
2022-08-04T17:34:57.401Z,61.80
2022-08-04T17:37:52.544Z,60.10
2022-08-04T17:40:22.655Z,60.10
2022-08-04T17:44:01.525Z,60.50
2022-08-04T17:46:45.631Z,58.10
2022-08-04T17:49:18.400Z,60.70
2022-08-04T17:52:05.675Z,61.40
2022-08-04T17:54:39.886Z,60.60
2022-08-04T17:57:21.238Z,62.40
2022-08-04T17:59:57.734Z,63.20
2022-08-04T18:02:32.684Z,63.20
2022-08-04T18:05:07.903Z,63.50
2022-08-04T18:08:34.567Z,64.00
2022-08-04T18:10:54.355Z,65.00
2022-08-04T18:13:27.984Z,66.90
2022-08-04T18:16:12.636Z,67.70
2022-08-04T18:19:12.859Z,67.50
2022-08-04T18:21:46.730Z,66.70
2022-08-04T18:24:36.101Z,68.60
2022-08-04T18:27:23.679Z,68.90
2022-08-04T18:30:34.532Z,69.40
2022-08-04T18:32:51.269Z,70.80
2022-08-04T18:36:31.504Z,71.30
2022-08-04T18:41:01.516Z,72.80
2022-08-04T18:43:30.433Z,72.80
2022-08-04T18:46:12.467Z,72.90
2022-08-04T18:48:42.014Z,73.80
2022-08-04T18:51:24.229Z,73.80
2022-08-04T18:53:58.892Z,73.90
2022-08-04T18:56:29.746Z,75.10
2022-08-04T18:59:01.724Z,75.30
2022-08-04T19:02:13.358Z,75.50
2022-08-04T19:04:33.362Z,76.60
2022-08-04T19:08:01.396Z,76.50
2022-08-04T19:12:26.841Z,76.20
2022-08-04T19:15:08.503Z,77.30
2022-08-04T19:17:54.149Z,77.70
2022-08-04T19:20:27.083Z,76.40
2022-08-04T19:24:29.762Z,76.50
2022-08-04T19:26:02.479Z,76.60
2022-08-04T19:31:34.056Z,77.40
2022-08-04T19:34:07.473Z,77.10
2022-08-04T19:39:11.301Z,76.20
2022-08-04T19:42:04.400Z,78.40
2022-08-04T19:44:30.120Z,78.10
2022-08-04T19:47:00.900Z,78.10
2022-08-04T19:50:04.796Z,79.40
2022-08-04T19:52:33.276Z,79.70
2022-08-04T19:55:10.470Z,80.60
2022-08-04T19:57:49.509Z,79.70
2022-08-04T20:00:32.832Z,79.60
2022-08-04T20:03:03.218Z,79.40
2022-08-04T20:05:52.605Z,79.60
2022-08-04T20:08:17.869Z,80.50
2022-08-04T20:10:51.603Z,80.00
2022-08-04T20:13:25.405Z,80.90
2022-08-04T20:15:58.989Z,81.20
2022-08-04T20:18:34.768Z,81.90
2022-08-04T20:21:19.067Z,83.70
2022-08-04T20:23:50.205Z,81.70
2022-08-04T20:26:17.279Z,82.10
2022-08-04T20:28:45.774Z,79.70
2022-08-04T20:31:18.484Z,79.70
2022-08-04T20:33:53.455Z,79.30
2022-08-04T20:36:21.002Z,77.80
2022-08-04T20:38:52.808Z,77.10
2022-08-04T20:41:23.319Z,76.90
2022-08-04T20:43:50.821Z,75.80
2022-08-04T20:46:29.540Z,77.40
2022-08-04T20:48:57.949Z,78.30
2022-08-04T20:51:33.387Z,76.60
2022-08-04T20:54:01.971Z,76.10
2022-08-04T20:56:31.352Z,75.20
2022-08-04T20:59:00.177Z,76.80
2022-08-04T21:04:45.315Z,78.70
2022-08-04T21:10:02.618Z,76.80
2022-08-04T21:12:29.527Z,76.50
2022-08-04T21:15:01.561Z,76.50
2022-08-04T21:17:58.320Z,76.60
2022-08-04T21:20:28.655Z,76.70
2022-08-04T21:22:59.704Z,76.80
2022-08-04T21:25:29.499Z,77.10
2022-08-04T21:27:58.969Z,77.70
2022-08-04T21:30:30.864Z,78.20
2022-08-04T21:32:59.764Z,78.70
2022-08-04T21:35:36.990Z,78.50
2022-08-04T21:41:01.505Z,79.80
2022-08-04T21:43:42.301Z,80.00
2022-08-04T21:46:11.409Z,80.10
2022-08-04T21:48:39.232Z,80.20
2022-08-04T21:51:57.206Z,80.30
2022-08-04T21:54:10.145Z,81.00
2022-08-04T21:56:42.457Z,80.90
2022-08-04T21:59:30.746Z,81.10
2022-08-04T22:02:00.297Z,81.40
2022-08-04T22:04:28.595Z,81.60
2022-08-04T22:06:55.599Z,81.70
2022-08-04T22:09:22.542Z,82.00
2022-08-04T22:11:51.541Z,82.10
2022-08-04T22:14:27.573Z,82.10
2022-08-04T22:16:56.611Z,83.00
2022-08-04T22:19:39.600Z,83.60
2022-08-04T22:22:12.543Z,83.70
2022-08-04T22:24:41.015Z,84.20
2022-08-04T22:27:37.472Z,84.50
2022-08-04T22:30:16.763Z,84.70
2022-08-04T22:32:48.307Z,85.00
2022-08-04T22:35:36.483Z,86.00
2022-08-04T22:38:24.121Z,86.00
2022-08-04T22:41:02.863Z,87.00
2022-08-04T22:43:33.734Z,86.70
2022-08-04T22:46:21.317Z,86.50
2022-08-04T22:48:48.909Z,86.70
2022-08-04T22:51:16.837Z,86.20
2022-08-04T22:53:48.960Z,86.20
2022-08-04T22:56:37.305Z,86.30
2022-08-04T22:59:05.167Z,86.40
2022-08-04T23:01:58.626Z,86.50
2022-08-04T23:04:19.103Z,86.50
2022-08-04T23:06:46.003Z,86.80
2022-08-04T23:09:16.089Z,86.90
2022-08-04T23:11:43.770Z,87.00
2022-08-04T23:14:10.916Z,87.10
2022-08-04T23:16:40.661Z,87.40
2022-08-04T23:19:12.069Z,87.50
2022-08-04T23:21:47.253Z,87.70
2022-08-04T23:24:14.949Z,88.40
2022-08-04T23:27:12.872Z,88.60
2022-08-04T23:29:52.785Z,89.10
2022-08-04T23:32:21.564Z,90.00
2022-08-04T23:34:49.573Z,90.20
2022-08-04T23:37:16.485Z,90.40
2022-08-04T23:40:14.523Z,90.60
2022-08-04T23:42:30.240Z,90.80
2022-08-04T23:44:57.194Z,91.00
2022-08-04T23:47:24.152Z,91.30
2022-08-04T23:50:11.134Z,91.50
2022-08-04T23:52:43.939Z,91.70
2022-08-04T23:55:18.959Z,91.70
2022-08-04T23:58:05.789Z,91.80
